| time (UTC) | temp C | wind direction | speed KPH | gust KPH | rain 1hr cm | rain 24hr cm | rain mn cm | humidity % | barometer mb |
| 20260502181533 | 27 | 99 | 12.9 | 22.5 | 0.00 | 0.00 | 0.00 | 10 | 1015.9 |
| 20260502163041 | 25 | 243 | 3.2 | 6.4 | 0.00 | 0.00 | 0.00 | 12 | 1016.7 |
| 20260502161556 | 25 | 182 | 0.0 | 4.8 | 0.00 | 0.00 | 0.00 | 13 | 1016.7 |
| 20260502151536 | 18 | 210 | 1.6 | 3.2 | 0.00 | 0.00 | 0.00 | 17 | 1016.5 |
| 20260502123108 | 8 | 67 | 1.6 | 3.2 | 0.00 | 0.00 | 0.00 | 29 | 1015.4 |
| 20260502121537 | 8 | 80 | 0.0 | 1.6 | 0.00 | 0.00 | 0.00 | 28 | 1015.3 |
| 20260502114537 | 9 | 0 | 0.0 | 4.8 | 0.00 | 0.00 | 0.00 | 28 | 1015.1 |
| 20260502113038 | 9 | 116 | 0.0 | 1.6 | 0.00 | 0.00 | 0.00 | 27 | 1015.3 |
| 20260502111537 | 9 | 0 | 0.0 | 1.6 | 0.00 | 0.00 | 0.00 | 27 | 1015.2 |
| 20260502110045 | 10 | 336 | 0.0 | 1.6 | 0.00 | 0.00 | 0.00 | 27 | 1015.2 |
| 20260502104541 | 10 | 65 | 1.6 | 3.2 | 0.00 | 0.00 | 0.00 | 26 | 1015.1 |
| 20260502103034 | 9 | 0 | 0.0 | 1.6 | 0.00 | 0.00 | 0.00 | 26 | 1014.9 |
| 20260502101545 | 10 | 49 | 3.2 | 3.2 | 0.00 | 0.00 | 0.00 | 26 | 1014.9 |
| 20260502071534 | 16 | 0 | 0.0 | 1.6 | 0.00 | 0.00 | 0.00 | 19 | 1015.0 |
| 20260502070032 | 17 | 252 | 1.6 | 4.8 | 0.00 | 0.00 | 0.00 | 18 | 1014.9 |
| 20260502064538 | 17 | 146 | 3.2 | 6.4 | 0.00 | 0.00 | 0.00 | 18 | 1015.0 |
| 20260502063051 | 17 | 0 | 0.0 | 1.6 | 0.00 | 0.00 | 0.00 | 18 | 1014.8 |
| 20260502061536 | 18 | 0 | 0.0 | 3.2 | 0.00 | 0.00 | 0.00 | 17 | 1014.8 |
| 20260502060034 | 18 | 259 | 0.0 | 1.6 | 0.00 | 0.00 | 0.00 | 18 | 1014.6 |
| 20260502054534 | 18 | 248 | 0.0 | 3.2 | 0.00 | 0.00 | 0.00 | 17 | 1014.5 |
| 20260502053038 | 18 | 238 | 0.0 | 3.2 | 0.00 | 0.00 | 0.00 | 18 | 1014.4 |
| 20260502051536 | 19 | 0 | 0.0 | 1.6 | 0.00 | 0.00 | 0.00 | 17 | 1014.3 |
| 20260502050038 | 20 | 253 | 0.0 | 12.9 | 0.00 | 0.00 | 0.00 | 17 | 1014.4 |
| 20260502044533 | 20 | 0 | 0.0 | 1.6 | 0.00 | 0.00 | 0.00 | 16 | 1014.0 |
| 20260502043032 | 20 | 81 | 0.0 | 4.8 | 0.00 | 0.00 | 0.00 | 16 | 1013.9 |
| 20260502041532 | 19 | 65 | 1.6 | 4.8 | 0.00 | 0.00 | 0.00 | 17 | 1013.7 |
| 20260502040037 | 21 | 43 | 4.8 | 12.9 | 0.00 | 0.00 | 0.00 | 16 | 1013.6 |
| 20260502034538 | 22 | 23 | 6.4 | 12.9 | 0.00 | 0.00 | 0.00 | 15 | 1013.4 |
| 20260502033044 | 22 | 11 | 4.8 | 6.4 | 0.00 | 0.00 | 0.00 | 14 | 1013.2 |
| 20260502031533 | 22 | 351 | 3.2 | 8.0 | 0.00 | 0.00 | 0.00 | 14 | 1013.0 |
| 20260502030036 | 22 | 43 | 4.8 | 6.4 | 0.00 | 0.00 | 0.00 | 14 | 1012.8 |
| 20260502024540 | 23 | 52 | 8.0 | 12.9 | 0.00 | 0.00 | 0.00 | 14 | 1012.7 |
| 20260502023035 | 25 | 46 | 8.0 | 16.1 | 0.00 | 0.00 | 0.00 | 13 | 1012.6 |
| 20260502021536 | 26 | 44 | 8.0 | 17.7 | 0.00 | 0.00 | 0.00 | 12 | 1012.4 |
| 20260502020032 | 26 | 51 | 9.7 | 17.7 | 0.00 | 0.00 | 0.00 | 12 | 1012.4 |
| 20260502014534 | 27 | 42 | 14.5 | 24.1 | 0.00 | 0.00 | 0.00 | 12 | 1012.2 |
| 20260502013037 | 27 | 12 | 9.7 | 19.3 | 0.00 | 0.00 | 0.00 | 12 | 1012.2 |
| 20260502011533 | 28 | 28 | 4.8 | 17.7 | 0.00 | 0.00 | 0.00 | 12 | 1012.2 |
| 20260502010048 | 28 | 340 | 12.9 | 27.4 | 0.00 | 0.00 | 0.00 | 11 | 1012.2 |
| 20260502004552 | 28 | 306 | 9.7 | 24.1 | 0.00 | 0.00 | 0.00 | 12 | 1012.2 |
| 20260502003035 | 28 | 26 | 16.1 | 22.5 | 0.00 | 0.00 | 0.00 | 12 | 1012.3 |
| 20260502001535 | 28 | 317 | 6.4 | 20.9 | 0.00 | 0.00 | 0.00 | 12 | 1012.2 |
| 20260502000033 | 28 | 317 | 19.3 | 27.4 | 0.00 | 0.00 | 0.00 | 12 | 1012.6 |
| 20260501234536 | 28 | 25 | 11.3 | 24.1 | 0.00 | 0.00 | 0.00 | 12 | 1012.6 |
| 20260501233034 | 28 | 272 | 12.9 | 20.9 | 0.00 | 0.00 | 0.00 | 12 | 1012.5 |
| 20260501231533 | 28 | 339 | 14.5 | 29.0 | 0.00 | 0.00 | 0.00 | 12 | 1012.8 |
| 20260501230032 | 28 | 331 | 6.4 | 25.7 | 0.00 | 0.00 | 0.00 | 12 | 1012.8 |
| 20260501224533 | 27 | 35 | 6.4 | 20.9 | 0.00 | 0.00 | 0.00 | 13 | 1013.0 |
| 20260501223033 | 27 | 319 | 9.7 | 24.1 | 0.00 | 0.00 | 0.00 | 12 | 1013.2 |
| 20260501221534 | 28 | 291 | 16.1 | 30.6 | 0.00 | 0.00 | 0.00 | 12 | 1013.4 |
| 20260501220312 | 28 | 306 | 14.5 | 25.7 | 0.00 | 0.00 | 0.00 | 12 | 1013.5 |
| 20260501220038 | 28 | 306 | 14.5 | 25.7 | 0.00 | 0.00 | 0.00 | 12 | 1013.5 |
| 20260501214532 | 28 | 301 | 16.1 | 33.8 | 0.00 | 0.00 | 0.00 | 12 | 1013.6 |
| 20260501213046 | 27 | 291 | 14.5 | 33.8 | 0.00 | 0.00 | 0.00 | 12 | 1013.6 |
| 20260501211532 | 28 | 341 | 11.3 | 35.4 | 0.00 | 0.00 | 0.00 | 13 | 1014.0 |
| 20260501210040 | 27 | 308 | 11.3 | 27.4 | 0.00 | 0.00 | 0.00 | 12 | 1014.1 |
| 20260501204536 | 27 | 300 | 14.5 | 30.6 | 0.00 | 0.00 | 0.00 | 12 | 1014.1 |
| 20260501203032 | 27 | 302 | 14.5 | 30.6 | 0.00 | 0.00 | 0.00 | 13 | 1014.1 |
| 20260501201533 | 27 | 323 | 16.1 | 24.1 | 0.00 | 0.00 | 0.00 | 13 | 1014.4 |
| 20260501200032 | 27 | 307 | 12.9 | 25.7 | 0.00 | 0.00 | 0.00 | 14 | 1014.5 |
| 20260501194539 | 27 | 304 | 14.5 | 25.7 | 0.00 | 0.00 | 0.00 | 14 | 1014.5 |
| 20260501193034 | 27 | 316 | 11.3 | 29.0 | 0.00 | 0.00 | 0.00 | 15 | 1014.4 |
| 20260501191537 | 27 | 289 | 14.5 | 35.4 | 0.00 | 0.00 | 0.00 | 15 | 1014.6 |
| 20260501190031 | 26 | 316 | 3.2 | 14.5 | 0.00 | 0.00 | 0.00 | 16 | 1015.0 |
| 20260501184534 | 26 | 209 | 4.8 | 14.5 | 0.00 | 0.00 | 0.00 | 16 | 1015.0 |
| 20260501183035 | 26 | 265 | 14.5 | 24.1 | 0.00 | 0.00 | 0.00 | 16 | 1015.1 |